sensor_id;sensor_type;location;lat;lon;timestamp;P1;durP1;ratioP1;P2;durP2;ratioP2
22648;SDS011;11491;41.942;24.220;2023-01-26T00:02:12;34.78;;;17.63;;
22648;SDS011;11491;41.942;24.220;2023-01-26T00:04:39;26.23;;;13.80;;
22648;SDS011;11491;41.942;24.220;2023-01-26T00:07:06;31.67;;;17.67;;
22648;SDS011;11491;41.942;24.220;2023-01-26T00:09:32;26.92;;;12.98;;
22648;SDS011;11491;41.942;24.220;2023-01-26T00:12:01;29.75;;;16.45;;
22648;SDS011;11491;41.942;24.220;2023-01-26T00:14:27;21.35;;;12.35;;
22648;SDS011;11491;41.942;24.220;2023-01-26T00:17:13;24.33;;;13.20;;
22648;SDS011;11491;41.942;24.220;2023-01-26T00:19:41;22.85;;;13.40;;
22648;SDS011;11491;41.942;24.220;2023-01-26T00:22:08;20.05;;;11.57;;
22648;SDS011;11491;41.942;24.220;2023-01-26T00:24:34;18.75;;;10.07;;
22648;SDS011;11491;41.942;24.220;2023-01-26T00:27:02;22.98;;;12.05;;
22648;SDS011;11491;41.942;24.220;2023-01-26T00:29:29;20.27;;;12.35;;
22648;SDS011;11491;41.942;24.220;2023-01-26T00:31:56;20.35;;;11.13;;
22648;SDS011;11491;41.942;24.220;2023-01-26T00:34:22;23.27;;;12.05;;
22648;SDS011;11491;41.942;24.220;2023-01-26T00:36:49;20.73;;;12.20;;
22648;SDS011;11491;41.942;24.220;2023-01-26T00:39:16;20.58;;;10.43;;
22648;SDS011;11491;41.942;24.220;2023-01-26T00:41:43;15.55;;;8.60;;
22648;SDS011;11491;41.942;24.220;2023-01-26T00:44:28;21.67;;;12.70;;
22648;SDS011;11491;41.942;24.220;2023-01-26T00:46:54;19.10;;;11.00;;
22648;SDS011;11491;41.942;24.220;2023-01-26T00:49:21;15.05;;;8.60;;
22648;SDS011;11491;41.942;24.220;2023-01-26T00:51:48;15.57;;;7.88;;
22648;SDS011;11491;41.942;24.220;2023-01-26T00:54:15;12.95;;;7.15;;
22648;SDS011;11491;41.942;24.220;2023-01-26T00:56:41;14.13;;;7.30;;
22648;SDS011;11491;41.942;24.220;2023-01-26T00:59:08;13.95;;;7.70;;
22648;SDS011;11491;41.942;24.220;2023-01-26T01:01:36;13.27;;;7.32;;
22648;SDS011;11491;41.942;24.220;2023-01-26T01:04:03;12.18;;;7.30;;
22648;SDS011;11491;41.942;24.220;2023-01-26T01:06:30;12.90;;;7.45;;
22648;SDS011;11491;41.942;24.220;2023-01-26T01:08:57;14.52;;;6.95;;
22648;SDS011;11491;41.942;24.220;2023-01-26T01:11:23;13.60;;;6.78;;
22648;SDS011;11491;41.942;24.220;2023-01-26T01:13:50;12.73;;;7.03;;
22648;SDS011;11491;41.942;24.220;2023-01-26T01:16:17;12.18;;;6.45;;
22648;SDS011;11491;41.942;24.220;2023-01-26T01:18:45;12.05;;;7.00;;
22648;SDS011;11491;41.942;24.220;2023-01-26T01:21:12;14.40;;;6.97;;
22648;SDS011;11491;41.942;24.220;2023-01-26T01:23:41;14.30;;;7.65;;
22648;SDS011;11491;41.942;24.220;2023-01-26T01:26:08;14.30;;;7.20;;
22648;SDS011;11491;41.942;24.220;2023-01-26T01:28:35;10.80;;;6.70;;
22648;SDS011;11491;41.942;24.220;2023-01-26T01:31:03;13.00;;;6.95;;
22648;SDS011;11491;41.942;24.220;2023-01-26T01:33:30;14.00;;;6.63;;
22648;SDS011;11491;41.942;24.220;2023-01-26T01:35:58;12.90;;;7.25;;
22648;SDS011;11491;41.942;24.220;2023-01-26T01:38:26;13.07;;;6.70;;
22648;SDS011;11491;41.942;24.220;2023-01-26T01:40:53;13.70;;;6.35;;
22648;SDS011;11491;41.942;24.220;2023-01-26T01:43:21;12.40;;;7.13;;
22648;SDS011;11491;41.942;24.220;2023-01-26T01:45:49;12.68;;;7.55;;
22648;SDS011;11491;41.942;24.220;2023-01-26T01:48:19;13.30;;;6.78;;
22648;SDS011;11491;41.942;24.220;2023-01-26T01:50:51;11.88;;;7.10;;
22648;SDS011;11491;41.942;24.220;2023-01-26T01:53:22;18.65;;;9.23;;
22648;SDS011;11491;41.942;24.220;2023-01-26T01:55:56;15.52;;;8.27;;
22648;SDS011;11491;41.942;24.220;2023-01-26T01:58:25;14.32;;;8.45;;
22648;SDS011;11491;41.942;24.220;2023-01-26T02:00:54;12.13;;;6.88;;
22648;SDS011;11491;41.942;24.220;2023-01-26T02:03:21;12.25;;;6.45;;
22648;SDS011;11491;41.942;24.220;2023-01-26T02:05:50;12.20;;;6.63;;
22648;SDS011;11491;41.942;24.220;2023-01-26T02:08:23;12.02;;;6.05;;
22648;SDS011;11491;41.942;24.220;2023-01-26T02:10:53;12.23;;;6.38;;
22648;SDS011;11491;41.942;24.220;2023-01-26T02:13:22;10.20;;;5.55;;
22648;SDS011;11491;41.942;24.220;2023-01-26T02:15:51;11.65;;;6.68;;
22648;SDS011;11491;41.942;24.220;2023-01-26T02:18:18;13.32;;;6.45;;
22648;SDS011;11491;41.942;24.220;2023-01-26T02:20:45;15.15;;;6.68;;
22648;SDS011;11491;41.942;24.220;2023-01-26T02:23:18;12.93;;;6.00;;
22648;SDS011;11491;41.942;24.220;2023-01-26T02:26:01;18.38;;;9.20;;
22648;SDS011;11491;41.942;24.220;2023-01-26T02:28:29;16.40;;;8.27;;
22648;SDS011;11491;41.942;24.220;2023-01-26T02:30:57;14.73;;;7.97;;
22648;SDS011;11491;41.942;24.220;2023-01-26T02:33:25;17.42;;;7.97;;
22648;SDS011;11491;41.942;24.220;2023-01-26T02:35:54;14.73;;;7.35;;
22648;SDS011;11491;41.942;24.220;2023-01-26T02:38:21;13.93;;;8.27;;
22648;SDS011;11491;41.942;24.220;2023-01-26T02:40:52;17.50;;;8.05;;
22648;SDS011;11491;41.942;24.220;2023-01-26T02:43:22;15.70;;;8.18;;
22648;SDS011;11491;41.942;24.220;2023-01-26T02:45:50;14.35;;;7.72;;
22648;SDS011;11491;41.942;24.220;2023-01-26T02:48:17;14.82;;;7.68;;
22648;SDS011;11491;41.942;24.220;2023-01-26T02:51:05;16.50;;;8.60;;
22648;SDS011;11491;41.942;24.220;2023-01-26T02:53:31;17.50;;;8.75;;
22648;SDS011;11491;41.942;24.220;2023-01-26T02:55:58;17.70;;;10.68;;
22648;SDS011;11491;41.942;24.220;2023-01-26T02:58:25;18.88;;;10.77;;
22648;SDS011;11491;41.942;24.220;2023-01-26T03:00:52;23.63;;;12.45;;
22648;SDS011;11491;41.942;24.220;2023-01-26T03:03:20;16.38;;;9.18;;
22648;SDS011;11491;41.942;24.220;2023-01-26T03:05:49;19.35;;;9.30;;
22648;SDS011;11491;41.942;24.220;2023-01-26T03:08:17;15.63;;;8.30;;
22648;SDS011;11491;41.942;24.220;2023-01-26T03:10:43;16.27;;;8.63;;
22648;SDS011;11491;41.942;24.220;2023-01-26T03:13:11;16.00;;;8.85;;
22648;SDS011;11491;41.942;24.220;2023-01-26T03:15:39;15.30;;;9.38;;
22648;SDS011;11491;41.942;24.220;2023-01-26T03:18:16;15.30;;;8.93;;
22648;SDS011;11491;41.942;24.220;2023-01-26T03:21:03;19.88;;;10.85;;
22648;SDS011;11491;41.942;24.220;2023-01-26T03:23:49;20.77;;;13.35;;
22648;SDS011;11491;41.942;24.220;2023-01-26T03:26:33;23.42;;;12.48;;
22648;SDS011;11491;41.942;24.220;2023-01-26T03:29:17;20.33;;;10.52;;
22648;SDS011;11491;41.942;24.220;2023-01-26T03:31:46;18.13;;;9.73;;
22648;SDS011;11491;41.942;24.220;2023-01-26T03:34:12;18.13;;;10.45;;
22648;SDS011;11491;41.942;24.220;2023-01-26T03:36:39;20.45;;;10.13;;
22648;SDS011;11491;41.942;24.220;2023-01-26T03:39:06;18.88;;;9.63;;
22648;SDS011;11491;41.942;24.220;2023-01-26T03:41:32;25.40;;;13.38;;
22648;SDS011;11491;41.942;24.220;2023-01-26T03:44:16;20.42;;;10.48;;
22648;SDS011;11491;41.942;24.220;2023-01-26T03:47:02;23.23;;;13.00;;
22648;SDS011;11491;41.942;24.220;2023-01-26T03:49:46;23.50;;;12.65;;
22648;SDS011;11491;41.942;24.220;2023-01-26T03:52:30;17.73;;;9.25;;
22648;SDS011;11491;41.942;24.220;2023-01-26T03:55:15;17.80;;;8.40;;
22648;SDS011;11491;41.942;24.220;2023-01-26T03:57:59;13.50;;;7.55;;
22648;SDS011;11491;41.942;24.220;2023-01-26T04:00:26;16.08;;;9.95;;
22648;SDS011;11491;41.942;24.220;2023-01-26T04:02:54;17.38;;;8.55;;
22648;SDS011;11491;41.942;24.220;2023-01-26T04:05:39;19.80;;;10.52;;
22648;SDS011;11491;41.942;24.220;2023-01-26T04:08:23;17.85;;;9.57;;
22648;SDS011;11491;41.942;24.220;2023-01-26T04:10:51;14.73;;;8.32;;
22648;SDS011;11491;41.942;24.220;2023-01-26T04:13:18;15.13;;;8.60;;
22648;SDS011;11491;41.942;24.220;2023-01-26T04:16:03;17.50;;;9.40;;
22648;SDS011;11491;41.942;24.220;2023-01-26T04:18:49;13.15;;;6.82;;
22648;SDS011;11491;41.942;24.220;2023-01-26T04:21:34;13.95;;;8.27;;
22648;SDS011;11491;41.942;24.220;2023-01-26T04:24:02;15.25;;;7.55;;
22648;SDS011;11491;41.942;24.220;2023-01-26T04:26:34;12.30;;;7.53;;
22648;SDS011;11491;41.942;24.220;2023-01-26T04:29:02;13.15;;;6.50;;
22648;SDS011;11491;41.942;24.220;2023-01-26T04:31:29;14.27;;;7.07;;
22648;SDS011;11491;41.942;24.220;2023-01-26T04:33:58;13.40;;;6.70;;
22648;SDS011;11491;41.942;24.220;2023-01-26T04:36:25;14.80;;;7.55;;
22648;SDS011;11491;41.942;24.220;2023-01-26T04:38:53;12.25;;;7.45;;
22648;SDS011;11491;41.942;24.220;2023-01-26T04:41:19;12.90;;;7.78;;
22648;SDS011;11491;41.942;24.220;2023-01-26T04:43:46;19.55;;;10.90;;
22648;SDS011;11491;41.942;24.220;2023-01-26T04:46:13;32.25;;;18.60;;
22648;SDS011;11491;41.942;24.220;2023-01-26T04:48:39;18.55;;;11.73;;
22648;SDS011;11491;41.942;24.220;2023-01-26T04:51:10;21.92;;;13.23;;
22648;SDS011;11491;41.942;24.220;2023-01-26T04:53:38;19.90;;;11.50;;
22648;SDS011;11491;41.942;24.220;2023-01-26T04:56:05;19.15;;;11.07;;
22648;SDS011;11491;41.942;24.220;2023-01-26T04:58:34;23.85;;;14.52;;
22648;SDS011;11491;41.942;24.220;2023-01-26T05:01:00;29.25;;;18.45;;
22648;SDS011;11491;41.942;24.220;2023-01-26T05:03:27;21.33;;;14.30;;
22648;SDS011;11491;41.942;24.220;2023-01-26T05:05:54;24.20;;;15.00;;
22648;SDS011;11491;41.942;24.220;2023-01-26T05:08:22;26.55;;;18.17;;
22648;SDS011;11491;41.942;24.220;2023-01-26T05:10:49;28.70;;;17.70;;
22648;SDS011;11491;41.942;24.220;2023-01-26T05:13:16;31.35;;;17.17;;
22648;SDS011;11491;41.942;24.220;2023-01-26T05:15:43;35.38;;;17.92;;
22648;SDS011;11491;41.942;24.220;2023-01-26T05:18:10;29.55;;;15.82;;
22648;SDS011;11491;41.942;24.220;2023-01-26T05:20:36;19.10;;;11.15;;
22648;SDS011;11491;41.942;24.220;2023-01-26T05:23:03;22.08;;;13.75;;
22648;SDS011;11491;41.942;24.220;2023-01-26T05:25:32;16.77;;;10.77;;
22648;SDS011;11491;41.942;24.220;2023-01-26T05:27:58;18.48;;;11.50;;
22648;SDS011;11491;41.942;24.220;2023-01-26T05:30:25;22.15;;;15.57;;
22648;SDS011;11491;41.942;24.220;2023-01-26T05:32:52;21.58;;;14.30;;
22648;SDS011;11491;41.942;24.220;2023-01-26T05:35:19;21.77;;;13.63;;
22648;SDS011;11491;41.942;24.220;2023-01-26T05:37:46;22.15;;;11.85;;
22648;SDS011;11491;41.942;24.220;2023-01-26T05:40:12;17.60;;;10.27;;
22648;SDS011;11491;41.942;24.220;2023-01-26T05:42:42;18.90;;;11.13;;
22648;SDS011;11491;41.942;24.220;2023-01-26T05:45:09;25.85;;;17.27;;
22648;SDS011;11491;41.942;24.220;2023-01-26T05:47:36;24.80;;;17.05;;
22648;SDS011;11491;41.942;24.220;2023-01-26T05:50:03;13.27;;;8.45;;
22648;SDS011;11491;41.942;24.220;2023-01-26T05:52:30;16.33;;;11.18;;
22648;SDS011;11491;41.942;24.220;2023-01-26T05:54:57;18.35;;;11.73;;
22648;SDS011;11491;41.942;24.220;2023-01-26T05:57:24;17.15;;;10.45;;
22648;SDS011;11491;41.942;24.220;2023-01-26T05:59:52;18.92;;;11.65;;
22648;SDS011;11491;41.942;24.220;2023-01-26T06:02:19;14.65;;;9.98;;
22648;SDS011;11491;41.942;24.220;2023-01-26T06:04:46;15.00;;;9.15;;
22648;SDS011;11491;41.942;24.220;2023-01-26T06:07:12;16.38;;;8.07;;
22648;SDS011;11491;41.942;24.220;2023-01-26T06:09:39;15.63;;;9.38;;
22648;SDS011;11491;41.942;24.220;2023-01-26T06:12:08;11.65;;;7.60;;
22648;SDS011;11491;41.942;24.220;2023-01-26T06:14:39;15.07;;;9.70;;
22648;SDS011;11491;41.942;24.220;2023-01-26T06:17:07;15.80;;;11.40;;
22648;SDS011;11491;41.942;24.220;2023-01-26T06:19:34;13.70;;;8.43;;
22648;SDS011;11491;41.942;24.220;2023-01-26T06:22:01;11.57;;;7.28;;
22648;SDS011;11491;41.942;24.220;2023-01-26T06:24:28;17.90;;;12.38;;
22648;SDS011;11491;41.942;24.220;2023-01-26T06:26:55;22.42;;;13.60;;
22648;SDS011;11491;41.942;24.220;2023-01-26T06:29:22;22.75;;;14.25;;
22648;SDS011;11491;41.942;24.220;2023-01-26T06:31:49;20.80;;;12.98;;
22648;SDS011;11491;41.942;24.220;2023-01-26T06:34:17;17.35;;;12.30;;
22648;SDS011;11491;41.942;24.220;2023-01-26T06:36:44;25.92;;;15.68;;
22648;SDS011;11491;41.942;24.220;2023-01-26T06:39:11;17.08;;;9.90;;
22648;SDS011;11491;41.942;24.220;2023-01-26T06:41:38;22.63;;;13.77;;
22648;SDS011;11491;41.942;24.220;2023-01-26T06:44:05;17.38;;;11.05;;
22648;SDS011;11491;41.942;24.220;2023-01-26T06:46:32;19.05;;;11.73;;
22648;SDS011;11491;41.942;24.220;2023-01-26T06:49:00;21.58;;;14.18;;
22648;SDS011;11491;41.942;24.220;2023-01-26T06:54:17;16.90;;;9.95;;
22648;SDS011;11491;41.942;24.220;2023-01-26T06:56:44;21.70;;;13.30;;
22648;SDS011;11491;41.942;24.220;2023-01-26T06:59:11;20.02;;;12.63;;
22648;SDS011;11491;41.942;24.220;2023-01-26T07:01:39;18.50;;;11.23;;
22648;SDS011;11491;41.942;24.220;2023-01-26T07:04:08;20.40;;;12.18;;
22648;SDS011;11491;41.942;24.220;2023-01-26T07:06:35;14.48;;;8.60;;
22648;SDS011;11491;41.942;24.220;2023-01-26T07:09:03;16.52;;;10.10;;
22648;SDS011;11491;41.942;24.220;2023-01-26T07:11:31;15.00;;;9.10;;
22648;SDS011;11491;41.942;24.220;2023-01-26T07:13:57;14.77;;;8.25;;
22648;SDS011;11491;41.942;24.220;2023-01-26T07:16:24;21.38;;;12.25;;
22648;SDS011;11491;41.942;24.220;2023-01-26T07:18:51;15.88;;;9.95;;
22648;SDS011;11491;41.942;24.220;2023-01-26T07:21:19;19.10;;;14.30;;
22648;SDS011;11491;41.942;24.220;2023-01-26T07:23:47;21.38;;;15.30;;
22648;SDS011;11491;41.942;24.220;2023-01-26T07:26:16;20.13;;;12.25;;
22648;SDS011;11491;41.942;24.220;2023-01-26T07:28:42;24.90;;;15.45;;
22648;SDS011;11491;41.942;24.220;2023-01-26T07:31:09;22.85;;;14.07;;
22648;SDS011;11491;41.942;24.220;2023-01-26T07:33:37;14.18;;;8.98;;
22648;SDS011;11491;41.942;24.220;2023-01-26T07:36:04;14.27;;;7.03;;
22648;SDS011;11491;41.942;24.220;2023-01-26T07:38:32;15.43;;;8.55;;
22648;SDS011;11491;41.942;24.220;2023-01-26T07:41:03;14.65;;;8.82;;
22648;SDS011;11491;41.942;24.220;2023-01-26T07:43:33;14.73;;;8.10;;
22648;SDS011;11491;41.942;24.220;2023-01-26T07:46:01;15.50;;;9.27;;
22648;SDS011;11491;41.942;24.220;2023-01-26T07:48:28;15.50;;;9.00;;
22648;SDS011;11491;41.942;24.220;2023-01-26T07:50:57;17.33;;;11.57;;
22648;SDS011;11491;41.942;24.220;2023-01-26T07:53:25;13.50;;;7.78;;
22648;SDS011;11491;41.942;24.220;2023-01-26T07:55:54;15.75;;;10.00;;
22648;SDS011;11491;41.942;24.220;2023-01-26T07:58:30;14.20;;;9.35;;
22648;SDS011;11491;41.942;24.220;2023-01-26T08:01:04;18.63;;;12.00;;
22648;SDS011;11491;41.942;24.220;2023-01-26T08:03:32;19.00;;;12.85;;
22648;SDS011;11491;41.942;24.220;2023-01-26T08:05:59;18.67;;;10.38;;
22648;SDS011;11491;41.942;24.220;2023-01-26T08:08:26;17.77;;;9.02;;
22648;SDS011;11491;41.942;24.220;2023-01-26T08:10:54;23.75;;;14.55;;
22648;SDS011;11491;41.942;24.220;2023-01-26T08:13:22;23.83;;;14.20;;
22648;SDS011;11491;41.942;24.220;2023-01-26T08:15:49;27.70;;;16.70;;
22648;SDS011;11491;41.942;24.220;2023-01-26T08:18:17;24.77;;;14.35;;
22648;SDS011;11491;41.942;24.220;2023-01-26T08:20:48;32.17;;;21.00;;
22648;SDS011;11491;41.942;24.220;2023-01-26T08:23:15;21.15;;;11.68;;
22648;SDS011;11491;41.942;24.220;2023-01-26T08:25:42;17.17;;;9.50;;
22648;SDS011;11491;41.942;24.220;2023-01-26T08:28:09;30.20;;;21.60;;
22648;SDS011;11491;41.942;24.220;2023-01-26T08:30:36;22.42;;;15.05;;
22648;SDS011;11491;41.942;24.220;2023-01-26T08:33:02;21.17;;;15.40;;
22648;SDS011;11491;41.942;24.220;2023-01-26T08:35:31;15.98;;;10.43;;
22648;SDS011;11491;41.942;24.220;2023-01-26T08:37:58;15.85;;;8.93;;
22648;SDS011;11491;41.942;24.220;2023-01-26T08:40:25;22.17;;;13.80;;
22648;SDS011;11491;41.942;24.220;2023-01-26T08:42:52;34.60;;;21.05;;
22648;SDS011;11491;41.942;24.220;2023-01-26T08:45:19;44.92;;;29.40;;
22648;SDS011;11491;41.942;24.220;2023-01-26T08:47:47;40.65;;;24.45;;
22648;SDS011;11491;41.942;24.220;2023-01-26T08:50:14;37.38;;;22.52;;
22648;SDS011;11491;41.942;24.220;2023-01-26T08:52:42;30.48;;;19.08;;
22648;SDS011;11491;41.942;24.220;2023-01-26T08:55:09;54.35;;;30.55;;
22648;SDS011;11491;41.942;24.220;2023-01-26T08:57:36;51.38;;;30.08;;
22648;SDS011;11491;41.942;24.220;2023-01-26T09:00:03;57.60;;;34.28;;
22648;SDS011;11491;41.942;24.220;2023-01-26T09:02:31;37.60;;;23.35;;
22648;SDS011;11491;41.942;24.220;2023-01-26T09:04:58;42.78;;;26.10;;
22648;SDS011;11491;41.942;24.220;2023-01-26T09:07:24;35.50;;;21.55;;
22648;SDS011;11491;41.942;24.220;2023-01-26T09:09:53;28.55;;;16.98;;
22648;SDS011;11491;41.942;24.220;2023-01-26T09:12:19;44.97;;;21.80;;
22648;SDS011;11491;41.942;24.220;2023-01-26T09:14:46;46.72;;;26.02;;
22648;SDS011;11491;41.942;24.220;2023-01-26T09:17:13;47.47;;;23.60;;
22648;SDS011;11491;41.942;24.220;2023-01-26T09:19:39;44.15;;;25.90;;
22648;SDS011;11491;41.942;24.220;2023-01-26T09:22:06;28.42;;;18.25;;
22648;SDS011;11491;41.942;24.220;2023-01-26T09:24:33;25.65;;;16.02;;
22648;SDS011;11491;41.942;24.220;2023-01-26T09:27:01;12.40;;;8.65;;
22648;SDS011;11491;41.942;24.220;2023-01-26T09:29:28;20.73;;;13.55;;
22648;SDS011;11491;41.942;24.220;2023-01-26T09:31:54;28.90;;;18.73;;
22648;SDS011;11491;41.942;24.220;2023-01-26T09:34:21;38.72;;;24.33;;
22648;SDS011;11491;41.942;24.220;2023-01-26T09:36:49;41.42;;;25.95;;
22648;SDS011;11491;41.942;24.220;2023-01-26T09:39:16;39.65;;;23.63;;
22648;SDS011;11491;41.942;24.220;2023-01-26T09:41:46;49.33;;;25.40;;
22648;SDS011;11491;41.942;24.220;2023-01-26T09:44:22;41.20;;;22.85;;
22648;SDS011;11491;41.942;24.220;2023-01-26T09:46:54;35.58;;;21.50;;
22648;SDS011;11491;41.942;24.220;2023-01-26T09:49:31;43.63;;;25.95;;
22648;SDS011;11491;41.942;24.220;2023-01-26T09:52:09;59.65;;;33.95;;
22648;SDS011;11491;41.942;24.220;2023-01-26T09:54:42;46.80;;;27.65;;
22648;SDS011;11491;41.942;24.220;2023-01-26T09:57:14;32.70;;;21.27;;
22648;SDS011;11491;41.942;24.220;2023-01-26T09:59:45;32.60;;;21.20;;
22648;SDS011;11491;41.942;24.220;2023-01-26T10:02:21;62.30;;;40.20;;
22648;SDS011;11491;41.942;24.220;2023-01-26T10:04:55;116.43;;;66.53;;
22648;SDS011;11491;41.942;24.220;2023-01-26T10:07:26;144.98;;;78.00;;
22648;SDS011;11491;41.942;24.220;2023-01-26T10:09:53;111.93;;;62.03;;
22648;SDS011;11491;41.942;24.220;2023-01-26T10:12:22;67.43;;;42.47;;
22648;SDS011;11491;41.942;24.220;2023-01-26T10:14:54;81.57;;;44.65;;
22648;SDS011;11491;41.942;24.220;2023-01-26T10:17:27;75.20;;;44.17;;
22648;SDS011;11491;41.942;24.220;2023-01-26T10:19:59;80.25;;;43.83;;
22648;SDS011;11491;41.942;24.220;2023-01-26T10:22:30;69.60;;;39.13;;
22648;SDS011;11491;41.942;24.220;2023-01-26T10:25:10;64.82;;;38.45;;
22648;SDS011;11491;41.942;24.220;2023-01-26T10:27:40;60.83;;;35.38;;
22648;SDS011;11491;41.942;24.220;2023-01-26T10:30:13;48.15;;;30.33;;
22648;SDS011;11491;41.942;24.220;2023-01-26T10:32:40;38.42;;;26.38;;
22648;SDS011;11491;41.942;24.220;2023-01-26T10:35:13;162.52;;;109.60;;
22648;SDS011;11491;41.942;24.220;2023-01-26T10:37:42;25.17;;;18.17;;
22648;SDS011;11491;41.942;24.220;2023-01-26T10:40:09;12.20;;;7.57;;
22648;SDS011;11491;41.942;24.220;2023-01-26T10:42:37;18.20;;;12.55;;
22648;SDS011;11491;41.942;24.220;2023-01-26T10:45:06;19.42;;;12.07;;
22648;SDS011;11491;41.942;24.220;2023-01-26T10:48:01;17.48;;;11.85;;
22648;SDS011;11491;41.942;24.220;2023-01-26T10:50:29;28.65;;;17.83;;
22648;SDS011;11491;41.942;24.220;2023-01-26T10:52:57;24.85;;;16.90;;
22648;SDS011;11491;41.942;24.220;2023-01-26T10:55:25;10.95;;;6.90;;
22648;SDS011;11491;41.942;24.220;2023-01-26T10:57:52;21.30;;;14.50;;
22648;SDS011;11491;41.942;24.220;2023-01-26T11:00:23;60.53;;;26.23;;
22648;SDS011;11491;41.942;24.220;2023-01-26T11:02:54;60.45;;;29.55;;
22648;SDS011;11491;41.942;24.220;2023-01-26T11:05:24;43.85;;;24.67;;
22648;SDS011;11491;41.942;24.220;2023-01-26T11:07:52;31.90;;;24.30;;
22648;SDS011;11491;41.942;24.220;2023-01-26T11:10:25;23.75;;;16.85;;
22648;SDS011;11491;41.942;24.220;2023-01-26T11:13:06;24.45;;;15.52;;
22648;SDS011;11491;41.942;24.220;2023-01-26T11:15:39;31.40;;;21.55;;
22648;SDS011;11491;41.942;24.220;2023-01-26T11:18:14;36.47;;;23.88;;
22648;SDS011;11491;41.942;24.220;2023-01-26T11:20:48;36.00;;;24.63;;
22648;SDS011;11491;41.942;24.220;2023-01-26T11:23:23;40.90;;;25.27;;
22648;SDS011;11491;41.942;24.220;2023-01-26T11:26:13;18.45;;;11.57;;
22648;SDS011;11491;41.942;24.220;2023-01-26T11:29:10;24.20;;;15.73;;
22648;SDS011;11491;41.942;24.220;2023-01-26T11:32:07;22.60;;;15.10;;
22648;SDS011;11491;41.942;24.220;2023-01-26T11:34:43;28.75;;;16.48;;
22648;SDS011;11491;41.942;24.220;2023-01-26T11:37:30;11.32;;;7.50;;
22648;SDS011;11491;41.942;24.220;2023-01-26T11:40:08;19.73;;;13.43;;
22648;SDS011;11491;41.942;24.220;2023-01-26T11:42:56;13.65;;;8.93;;
22648;SDS011;11491;41.942;24.220;2023-01-26T11:45:34;17.92;;;10.93;;
22648;SDS011;11491;41.942;24.220;2023-01-26T11:48:15;20.35;;;13.18;;
22648;SDS011;11491;41.942;24.220;2023-01-26T11:50:48;31.90;;;22.95;;
22648;SDS011;11491;41.942;24.220;2023-01-26T11:53:27;26.42;;;17.58;;
22648;SDS011;11491;41.942;24.220;2023-01-26T11:56:22;34.25;;;20.48;;
22648;SDS011;11491;41.942;24.220;2023-01-26T11:58:55;50.08;;;31.83;;
22648;SDS011;11491;41.942;24.220;2023-01-26T12:01:27;49.80;;;33.58;;
22648;SDS011;11491;41.942;24.220;2023-01-26T12:04:00;71.72;;;47.72;;
22648;SDS011;11491;41.942;24.220;2023-01-26T12:06:28;52.03;;;35.60;;
22648;SDS011;11491;41.942;24.220;2023-01-26T12:09:01;55.15;;;37.20;;
22648;SDS011;11491;41.942;24.220;2023-01-26T12:11:30;46.03;;;31.40;;
22648;SDS011;11491;41.942;24.220;2023-01-26T12:14:06;62.85;;;40.80;;
22648;SDS011;11491;41.942;24.220;2023-01-26T12:19:41;63.55;;;43.10;;
22648;SDS011;11491;41.942;24.220;2023-01-26T12:22:17;34.45;;;22.67;;
22648;SDS011;11491;41.942;24.220;2023-01-26T12:24:49;35.95;;;23.17;;
22648;SDS011;11491;41.942;24.220;2023-01-26T12:27:21;38.33;;;23.73;;
22648;SDS011;11491;41.942;24.220;2023-01-26T12:29:53;61.60;;;33.20;;
22648;SDS011;11491;41.942;24.220;2023-01-26T12:32:30;33.35;;;21.98;;
22648;SDS011;11491;41.942;24.220;2023-01-26T12:35:00;34.28;;;20.95;;
22648;SDS011;11491;41.942;24.220;2023-01-26T12:37:34;42.80;;;27.17;;
22648;SDS011;11491;41.942;24.220;2023-01-26T12:40:14;42.15;;;24.17;;
22648;SDS011;11491;41.942;24.220;2023-01-26T12:42:56;38.53;;;25.90;;
22648;SDS011;11491;41.942;24.220;2023-01-26T12:45:32;43.47;;;27.92;;
22648;SDS011;11491;41.942;24.220;2023-01-26T12:48:04;52.72;;;32.90;;
22648;SDS011;11491;41.942;24.220;2023-01-26T12:50:38;62.80;;;38.05;;
22648;SDS011;11491;41.942;24.220;2023-01-26T12:53:12;76.78;;;45.72;;
22648;SDS011;11491;41.942;24.220;2023-01-26T12:55:44;52.72;;;31.73;;
22648;SDS011;11491;41.942;24.220;2023-01-26T12:58:13;65.88;;;42.08;;
22648;SDS011;11491;41.942;24.220;2023-01-26T13:00:55;56.35;;;36.67;;
22648;SDS011;11491;41.942;24.220;2023-01-26T13:03:27;53.97;;;34.00;;
22648;SDS011;11491;41.942;24.220;2023-01-26T13:05:59;85.97;;;55.30;;
22648;SDS011;11491;41.942;24.220;2023-01-26T13:11:41;70.93;;;45.65;;
22648;SDS011;11491;41.942;24.220;2023-01-26T13:14:23;53.22;;;36.67;;
22648;SDS011;11491;41.942;24.220;2023-01-26T13:17:39;57.97;;;41.03;;
22648;SDS011;11491;41.942;24.220;2023-01-26T13:20:23;51.05;;;32.17;;
22648;SDS011;11491;41.942;24.220;2023-01-26T13:22:54;56.03;;;35.63;;
22648;SDS011;11491;41.942;24.220;2023-01-26T13:25:26;41.05;;;27.50;;
22648;SDS011;11491;41.942;24.220;2023-01-26T13:27:57;47.83;;;34.97;;
22648;SDS011;11491;41.942;24.220;2023-01-26T13:30:31;33.65;;;21.90;;
22648;SDS011;11491;41.942;24.220;2023-01-26T13:33:18;38.97;;;27.65;;
22648;SDS011;11491;41.942;24.220;2023-01-26T13:35:49;28.38;;;19.05;;
22648;SDS011;11491;41.942;24.220;2023-01-26T13:38:23;29.75;;;20.95;;
22648;SDS011;11491;41.942;24.220;2023-01-26T13:40:53;36.03;;;25.05;;
22648;SDS011;11491;41.942;24.220;2023-01-26T13:43:22;39.60;;;25.95;;
22648;SDS011;11491;41.942;24.220;2023-01-26T13:45:58;67.80;;;41.33;;
22648;SDS011;11491;41.942;24.220;2023-01-26T13:48:35;41.78;;;24.77;;
22648;SDS011;11491;41.942;24.220;2023-01-26T13:51:07;58.08;;;36.92;;
22648;SDS011;11491;41.942;24.220;2023-01-26T13:53:39;89.93;;;44.20;;
22648;SDS011;11491;41.942;24.220;2023-01-26T13:56:18;72.38;;;41.63;;
22648;SDS011;11491;41.942;24.220;2023-01-26T13:58:47;67.05;;;36.13;;
22648;SDS011;11491;41.942;24.220;2023-01-26T14:01:15;81.95;;;47.50;;
22648;SDS011;11491;41.942;24.220;2023-01-26T14:03:42;55.90;;;32.17;;
22648;SDS011;11491;41.942;24.220;2023-01-26T14:06:10;31.48;;;19.85;;
22648;SDS011;11491;41.942;24.220;2023-01-26T14:08:43;76.25;;;41.70;;
22648;SDS011;11491;41.942;24.220;2023-01-26T14:11:17;52.65;;;30.02;;
22648;SDS011;11491;41.942;24.220;2023-01-26T14:13:46;35.03;;;23.90;;
22648;SDS011;11491;41.942;24.220;2023-01-26T14:16:20;26.83;;;18.13;;
22648;SDS011;11491;41.942;24.220;2023-01-26T14:18:50;24.80;;;17.83;;
22648;SDS011;11491;41.942;24.220;2023-01-26T14:21:18;31.17;;;21.02;;
22648;SDS011;11491;41.942;24.220;2023-01-26T14:23:54;27.80;;;17.10;;
22648;SDS011;11491;41.942;24.220;2023-01-26T14:26:24;46.60;;;28.95;;
22648;SDS011;11491;41.942;24.220;2023-01-26T14:28:55;35.63;;;23.52;;
22648;SDS011;11491;41.942;24.220;2023-01-26T14:31:24;31.33;;;22.67;;
22648;SDS011;11491;41.942;24.220;2023-01-26T14:33:53;25.45;;;18.02;;
22648;SDS011;11491;41.942;24.220;2023-01-26T14:36:23;28.88;;;17.00;;
22648;SDS011;11491;41.942;24.220;2023-01-26T14:38:52;45.72;;;28.10;;
22648;SDS011;11491;41.942;24.220;2023-01-26T14:41:21;35.53;;;22.23;;
22648;SDS011;11491;41.942;24.220;2023-01-26T14:43:50;28.85;;;19.00;;